sensor_id;sensor_type;location;lat;lon;timestamp;pressure;altitude;pressure_sealevel;temperature;humidity
40592;BME280;26301;42.832;23.918;2023-11-18T00:01:33;92413.31;;;6.31;97.69
40592;BME280;26301;42.832;23.918;2023-11-18T00:03:59;92417.53;;;6.37;97.84
40592;BME280;26301;42.832;23.918;2023-11-18T00:06:24;92398.81;;;6.25;97.98
40592;BME280;26301;42.832;23.918;2023-11-18T00:08:50;92413.22;;;6.26;100.00
40592;BME280;26301;42.832;23.918;2023-11-18T00:11:15;92418.81;;;6.23;100.00
40592;BME280;26301;42.832;23.918;2023-11-18T00:13:41;92413.44;;;6.13;100.00
40592;BME280;26301;42.832;23.918;2023-11-18T00:16:10;92409.09;;;6.02;100.00
40592;BME280;26301;42.832;23.918;2023-11-18T00:18:41;92402.88;;;5.98;100.00
40592;BME280;26301;42.832;23.918;2023-11-18T00:21:06;92396.06;;;6.03;100.00
40592;BME280;26301;42.832;23.918;2023-11-18T00:23:35;92388.50;;;6.08;100.00
40592;BME280;26301;42.832;23.918;2023-11-18T00:26:01;92389.59;;;6.12;100.00
40592;BME280;26301;42.832;23.918;2023-11-18T00:28:27;92376.13;;;6.05;100.00
40592;BME280;26301;42.832;23.918;2023-11-18T00:30:52;92394.06;;;6.17;100.00
40592;BME280;26301;42.832;23.918;2023-11-18T00:33:18;92395.72;;;6.23;100.00
40592;BME280;26301;42.832;23.918;2023-11-18T00:35:43;92379.34;;;6.12;100.00
40592;BME280;26301;42.832;23.918;2023-11-18T00:38:10;92409.00;;;6.20;100.00
40592;BME280;26301;42.832;23.918;2023-11-18T00:40:36;92409.22;;;6.18;100.00
40592;BME280;26301;42.832;23.918;2023-11-18T00:43:01;92403.19;;;6.25;100.00
40592;BME280;26301;42.832;23.918;2023-11-18T00:45:28;92419.56;;;6.35;100.00
40592;BME280;26301;42.832;23.918;2023-11-18T00:47:54;92413.69;;;6.23;100.00
40592;BME280;26301;42.832;23.918;2023-11-18T00:50:19;92412.09;;;6.22;99.77
40592;BME280;26301;42.832;23.918;2023-11-18T00:52:45;92394.84;;;6.17;99.81
40592;BME280;26301;42.832;23.918;2023-11-18T00:55:14;92399.50;;;6.21;100.00
40592;BME280;26301;42.832;23.918;2023-11-18T00:57:39;92400.28;;;6.21;100.00
40592;BME280;26301;42.832;23.918;2023-11-18T01:00:07;92383.56;;;6.18;100.00
40592;BME280;26301;42.832;23.918;2023-11-18T01:02:34;92365.31;;;6.03;100.00
40592;BME280;26301;42.832;23.918;2023-11-18T01:05:00;92399.88;;;6.01;100.00
40592;BME280;26301;42.832;23.918;2023-11-18T01:07:25;92401.53;;;5.95;100.00
40592;BME280;26301;42.832;23.918;2023-11-18T01:09:51;92402.41;;;5.89;100.00
40592;BME280;26301;42.832;23.918;2023-11-18T01:12:16;92390.28;;;5.84;100.00
40592;BME280;26301;42.832;23.918;2023-11-18T01:14:42;92396.38;;;5.83;99.84
40592;BME280;26301;42.832;23.918;2023-11-18T01:17:08;92393.28;;;5.69;100.00
40592;BME280;26301;42.832;23.918;2023-11-18T01:19:37;92410.53;;;5.74;100.00
40592;BME280;26301;42.832;23.918;2023-11-18T01:22:03;92392.84;;;5.49;100.00
40592;BME280;26301;42.832;23.918;2023-11-18T01:24:32;92403.53;;;5.58;100.00
40592;BME280;26301;42.832;23.918;2023-11-18T01:26:58;92402.75;;;5.57;100.00
40592;BME280;26301;42.832;23.918;2023-11-18T01:29:27;92402.75;;;5.45;100.00
40592;BME280;26301;42.832;23.918;2023-11-18T01:31:53;92403.28;;;5.59;100.00
40592;BME280;26301;42.832;23.918;2023-11-18T01:34:21;92420.88;;;5.44;100.00
40592;BME280;26301;42.832;23.918;2023-11-18T01:36:47;92402.84;;;5.39;100.00
40592;BME280;26301;42.832;23.918;2023-11-18T01:39:15;92410.63;;;5.44;100.00
40592;BME280;26301;42.832;23.918;2023-11-18T01:41:41;92398.81;;;5.31;100.00
40592;BME280;26301;42.832;23.918;2023-11-18T01:44:06;92417.34;;;5.45;100.00
40592;BME280;26301;42.832;23.918;2023-11-18T01:46:34;92416.09;;;5.47;100.00
40592;BME280;26301;42.832;23.918;2023-11-18T01:49:02;92405.31;;;5.45;100.00
40592;BME280;26301;42.832;23.918;2023-11-18T01:51:30;92400.97;;;5.46;100.00
40592;BME280;26301;42.832;23.918;2023-11-18T01:53:57;92392.81;;;5.37;100.00
40592;BME280;26301;42.832;23.918;2023-11-18T01:56:25;92403.06;;;5.49;100.00
40592;BME280;26301;42.832;23.918;2023-11-18T01:58:52;92411.53;;;5.49;100.00
40592;BME280;26301;42.832;23.918;2023-11-18T02:01:18;92405.44;;;5.50;100.00
40592;BME280;26301;42.832;23.918;2023-11-18T02:03:44;92385.00;;;5.32;100.00
40592;BME280;26301;42.832;23.918;2023-11-18T02:06:10;92399.41;;;5.45;100.00
40592;BME280;26301;42.832;23.918;2023-11-18T02:08:38;92383.78;;;5.35;100.00
40592;BME280;26301;42.832;23.918;2023-11-18T02:13:42;92390.06;;;5.39;100.00
40592;BME280;26301;42.832;23.918;2023-11-18T02:16:12;92393.16;;;5.41;100.00
40592;BME280;26301;42.832;23.918;2023-11-18T02:18:38;92393.72;;;5.43;100.00
40592;BME280;26301;42.832;23.918;2023-11-18T02:21:07;92402.88;;;5.50;100.00
40592;BME280;26301;42.832;23.918;2023-11-18T02:23:33;92398.94;;;5.36;100.00
40592;BME280;26301;42.832;23.918;2023-11-18T02:25:59;92407.63;;;5.47;100.00
40592;BME280;26301;42.832;23.918;2023-11-18T02:28:26;92408.66;;;5.46;100.00
40592;BME280;26301;42.832;23.918;2023-11-18T02:31:01;92391.72;;;5.33;100.00
40592;BME280;26301;42.832;23.918;2023-11-18T02:33:37;92401.72;;;5.35;99.00
40592;BME280;26301;42.832;23.918;2023-11-18T02:36:11;92365.47;;;4.96;99.03
40592;BME280;26301;42.832;23.918;2023-11-18T02:38:46;92406.47;;;5.19;99.65
40592;BME280;26301;42.832;23.918;2023-11-18T02:41:13;92398.94;;;5.24;98.71
40592;BME280;26301;42.832;23.918;2023-11-18T02:43:40;92409.63;;;5.21;98.36
40592;BME280;26301;42.832;23.918;2023-11-18T02:46:09;92405.47;;;5.09;99.27
40592;BME280;26301;42.832;23.918;2023-11-18T02:48:38;92428.50;;;5.20;99.54
40592;BME280;26301;42.832;23.918;2023-11-18T02:51:04;92410.16;;;5.12;99.66
40592;BME280;26301;42.832;23.918;2023-11-18T02:53:30;92433.00;;;5.25;99.75
40592;BME280;26301;42.832;23.918;2023-11-18T02:55:56;92385.88;;;5.02;100.00
40592;BME280;26301;42.832;23.918;2023-11-18T02:58:29;92429.22;;;5.27;100.00
40592;BME280;26301;42.832;23.918;2023-11-18T03:00:54;92426.66;;;5.27;100.00
40592;BME280;26301;42.832;23.918;2023-11-18T03:03:20;92419.50;;;5.18;99.86
40592;BME280;26301;42.832;23.918;2023-11-18T03:05:46;92406.00;;;5.11;100.00
40592;BME280;26301;42.832;23.918;2023-11-18T03:08:15;92434.00;;;5.24;100.00
40592;BME280;26301;42.832;23.918;2023-11-18T03:10:41;92412.59;;;5.07;100.00
40592;BME280;26301;42.832;23.918;2023-11-18T03:13:10;92418.28;;;5.20;100.00
40592;BME280;26301;42.832;23.918;2023-11-18T03:15:37;92401.34;;;5.08;99.15
40592;BME280;26301;42.832;23.918;2023-11-18T03:18:03;92389.03;;;4.86;99.60
40592;BME280;26301;42.832;23.918;2023-11-18T03:20:31;92402.44;;;5.00;100.00
40592;BME280;26301;42.832;23.918;2023-11-18T03:22:59;92412.78;;;5.05;100.00
40592;BME280;26301;42.832;23.918;2023-11-18T03:25:28;92407.56;;;5.00;99.43
40592;BME280;26301;42.832;23.918;2023-11-18T03:27:53;92395.06;;;4.92;100.00
40592;BME280;26301;42.832;23.918;2023-11-18T03:30:20;92405.09;;;5.05;99.84
40592;BME280;26301;42.832;23.918;2023-11-18T03:32:45;92409.13;;;5.01;99.80
40592;BME280;26301;42.832;23.918;2023-11-18T03:35:11;92407.13;;;5.03;99.22
40592;BME280;26301;42.832;23.918;2023-11-18T03:37:37;92414.22;;;5.01;99.92
40592;BME280;26301;42.832;23.918;2023-11-18T03:40:13;92419.16;;;5.02;99.97
40592;BME280;26301;42.832;23.918;2023-11-18T03:42:40;92422.91;;;5.00;100.00
40592;BME280;26301;42.832;23.918;2023-11-18T03:45:07;92422.56;;;4.96;100.00
40592;BME280;26301;42.832;23.918;2023-11-18T03:47:32;92399.06;;;4.88;100.00
40592;BME280;26301;42.832;23.918;2023-11-18T03:49:59;92408.06;;;4.90;100.00
40592;BME280;26301;42.832;23.918;2023-11-18T03:52:24;92413.66;;;4.99;100.00
40592;BME280;26301;42.832;23.918;2023-11-18T03:54:51;92403.09;;;4.95;99.94
40592;BME280;26301;42.832;23.918;2023-11-18T03:57:16;92400.97;;;4.92;99.85
40592;BME280;26301;42.832;23.918;2023-11-18T03:59:42;92400.97;;;4.92;100.00
40592;BME280;26301;42.832;23.918;2023-11-18T04:02:08;92389.28;;;4.96;100.00
40592;BME280;26301;42.832;23.918;2023-11-18T04:04:36;92369.91;;;4.89;100.00
40592;BME280;26301;42.832;23.918;2023-11-18T04:07:02;92360.91;;;4.86;99.45
40592;BME280;26301;42.832;23.918;2023-11-18T04:09:27;92388.44;;;5.02;100.00
40592;BME280;26301;42.832;23.918;2023-11-18T04:11:53;92371.25;;;4.91;100.00
40592;BME280;26301;42.832;23.918;2023-11-18T04:14:19;92354.31;;;4.90;100.00
40592;BME280;26301;42.832;23.918;2023-11-18T04:16:45;92360.78;;;4.93;100.00
40592;BME280;26301;42.832;23.918;2023-11-18T04:19:11;92364.69;;;4.95;100.00
40592;BME280;26301;42.832;23.918;2023-11-18T04:21:37;92385.50;;;4.99;100.00
40592;BME280;26301;42.832;23.918;2023-11-18T04:24:04;92366.25;;;4.85;100.00
40592;BME280;26301;42.832;23.918;2023-11-18T04:26:31;92368.56;;;4.86;100.00
40592;BME280;26301;42.832;23.918;2023-11-18T04:28:57;92340.97;;;4.76;100.00
40592;BME280;26301;42.832;23.918;2023-11-18T04:31:23;92360.56;;;4.82;100.00
40592;BME280;26301;42.832;23.918;2023-11-18T04:33:48;92361.59;;;4.63;100.00
40592;BME280;26301;42.832;23.918;2023-11-18T04:36:14;92369.09;;;4.76;100.00
40592;BME280;26301;42.832;23.918;2023-11-18T04:38:41;92374.13;;;4.83;97.60
40592;BME280;26301;42.832;23.918;2023-11-18T04:41:07;92365.81;;;4.57;98.99
40592;BME280;26301;42.832;23.918;2023-11-18T04:43:33;92381.06;;;4.64;98.93
40592;BME280;26301;42.832;23.918;2023-11-18T04:45:59;92379.25;;;4.53;100.00
40592;BME280;26301;42.832;23.918;2023-11-18T04:48:25;92385.16;;;4.35;100.00
40592;BME280;26301;42.832;23.918;2023-11-18T04:50:50;92381.69;;;4.29;100.00
40592;BME280;26301;42.832;23.918;2023-11-18T04:53:16;92399.44;;;4.43;100.00
40592;BME280;26301;42.832;23.918;2023-11-18T04:55:42;92396.47;;;4.46;100.00
40592;BME280;26301;42.832;23.918;2023-11-18T04:58:07;92364.88;;;4.40;100.00
40592;BME280;26301;42.832;23.918;2023-11-18T05:00:38;92380.75;;;4.42;100.00
40592;BME280;26301;42.832;23.918;2023-11-18T05:03:07;92369.06;;;4.34;100.00
40592;BME280;26301;42.832;23.918;2023-11-18T05:05:36;92377.72;;;4.33;100.00
40592;BME280;26301;42.832;23.918;2023-11-18T05:08:06;92391.97;;;4.41;100.00
40592;BME280;26301;42.832;23.918;2023-11-18T05:10:32;92380.06;;;4.35;100.00
40592;BME280;26301;42.832;23.918;2023-11-18T05:12:59;92376.28;;;4.38;100.00
40592;BME280;26301;42.832;23.918;2023-11-18T05:15:24;92380.84;;;4.35;100.00
40592;BME280;26301;42.832;23.918;2023-11-18T05:17:53;92362.81;;;4.30;100.00
40592;BME280;26301;42.832;23.918;2023-11-18T05:20:20;92352.66;;;4.24;100.00
40592;BME280;26301;42.832;23.918;2023-11-18T05:22:46;92359.25;;;4.31;100.00
40592;BME280;26301;42.832;23.918;2023-11-18T05:25:11;92363.69;;;4.24;100.00
40592;BME280;26301;42.832;23.918;2023-11-18T05:27:37;92357.66;;;4.19;100.00
40592;BME280;26301;42.832;23.918;2023-11-18T05:30:06;92346.59;;;4.06;100.00
40592;BME280;26301;42.832;23.918;2023-11-18T05:32:33;92352.03;;;4.10;100.00
40592;BME280;26301;42.832;23.918;2023-11-18T05:34:59;92368.38;;;4.27;100.00
40592;BME280;26301;42.832;23.918;2023-11-18T05:37:24;92371.72;;;4.09;98.09
40592;BME280;26301;42.832;23.918;2023-11-18T05:39:50;92368.75;;;3.94;100.00
40592;BME280;26301;42.832;23.918;2023-11-18T05:42:25;92365.38;;;3.94;100.00
40592;BME280;26301;42.832;23.918;2023-11-18T05:44:51;92333.53;;;3.78;100.00
40592;BME280;26301;42.832;23.918;2023-11-18T05:47:24;92351.84;;;3.75;100.00
40592;BME280;26301;42.832;23.918;2023-11-18T05:49:51;92363.63;;;3.94;100.00
40592;BME280;26301;42.832;23.918;2023-11-18T05:52:17;92364.19;;;3.96;100.00
40592;BME280;26301;42.832;23.918;2023-11-18T05:54:42;92362.41;;;3.97;99.64
40592;BME280;26301;42.832;23.918;2023-11-18T05:57:07;92364.69;;;3.86;93.03
40592;BME280;26301;42.832;23.918;2023-11-18T05:59:33;92349.94;;;3.88;94.65
40592;BME280;26301;42.832;23.918;2023-11-18T06:01:58;92379.44;;;4.03;95.21
40592;BME280;26301;42.832;23.918;2023-11-18T06:04:24;92361.44;;;3.98;97.04
40592;BME280;26301;42.832;23.918;2023-11-18T06:06:50;92371.34;;;4.06;96.13
40592;BME280;26301;42.832;23.918;2023-11-18T06:09:17;92369.78;;;4.05;92.20
40592;BME280;26301;42.832;23.918;2023-11-18T06:11:53;92385.97;;;3.99;91.68
40592;BME280;26301;42.832;23.918;2023-11-18T06:14:20;92386.66;;;3.87;91.64
40592;BME280;26301;42.832;23.918;2023-11-18T06:16:47;92414.00;;;3.87;93.50
40592;BME280;26301;42.832;23.918;2023-11-18T06:19:15;92394.22;;;3.82;93.29
40592;BME280;26301;42.832;23.918;2023-11-18T06:21:40;92415.75;;;3.68;92.00
40592;BME280;26301;42.832;23.918;2023-11-18T06:24:06;92429.13;;;3.63;92.15
40592;BME280;26301;42.832;23.918;2023-11-18T06:26:32;92421.53;;;3.57;92.31
40592;BME280;26301;42.832;23.918;2023-11-18T06:29:01;92401.34;;;3.30;88.58
40592;BME280;26301;42.832;23.918;2023-11-18T06:31:27;92427.63;;;3.31;89.09
40592;BME280;26301;42.832;23.918;2023-11-18T06:33:55;92420.19;;;3.29;91.59
40592;BME280;26301;42.832;23.918;2023-11-18T06:36:21;92413.31;;;3.05;86.75
40592;BME280;26301;42.832;23.918;2023-11-18T06:38:49;92423.88;;;3.08;89.39
40592;BME280;26301;42.832;23.918;2023-11-18T06:41:16;92439.38;;;3.07;89.60
40592;BME280;26301;42.832;23.918;2023-11-18T06:43:44;92420.38;;;3.03;89.85
40592;BME280;26301;42.832;23.918;2023-11-18T06:46:20;92436.22;;;3.11;89.54
40592;BME280;26301;42.832;23.918;2023-11-18T06:48:51;92441.38;;;3.05;86.67
40592;BME280;26301;42.832;23.918;2023-11-18T06:51:24;92444.88;;;3.10;89.45
40592;BME280;26301;42.832;23.918;2023-11-18T06:53:54;92454.63;;;3.20;91.43
40592;BME280;26301;42.832;23.918;2023-11-18T06:56:23;92439.38;;;3.07;88.04
40592;BME280;26301;42.832;23.918;2023-11-18T06:58:49;92437.00;;;3.12;87.13
40592;BME280;26301;42.832;23.918;2023-11-18T07:01:15;92461.75;;;3.11;88.62
40592;BME280;26301;42.832;23.918;2023-11-18T07:03:45;92437.50;;;2.95;89.80
40592;BME280;26301;42.832;23.918;2023-11-18T07:06:16;92460.19;;;3.10;90.39
40592;BME280;26301;42.832;23.918;2023-11-18T07:08:48;92438.16;;;3.16;92.88
40592;BME280;26301;42.832;23.918;2023-11-18T07:11:15;92460.25;;;3.29;94.03
40592;BME280;26301;42.832;23.918;2023-11-18T07:13:40;92440.44;;;3.24;94.69
40592;BME280;26301;42.832;23.918;2023-11-18T07:16:07;92429.28;;;3.25;91.77
40592;BME280;26301;42.832;23.918;2023-11-18T07:18:37;92427.63;;;3.31;92.43
40592;BME280;26301;42.832;23.918;2023-11-18T07:21:06;92442.22;;;3.49;88.22
40592;BME280;26301;42.832;23.918;2023-11-18T07:23:32;92444.25;;;3.15;91.64
40592;BME280;26301;42.832;23.918;2023-11-18T07:25:58;92455.47;;;3.39;93.30
40592;BME280;26301;42.832;23.918;2023-11-18T07:28:24;92429.56;;;3.35;95.13
40592;BME280;26301;42.832;23.918;2023-11-18T07:30:50;92457.78;;;3.47;95.70
40592;BME280;26301;42.832;23.918;2023-11-18T07:33:18;92435.56;;;3.23;91.45
40592;BME280;26301;42.832;23.918;2023-11-18T07:35:44;92443.88;;;3.11;89.32
40592;BME280;26301;42.832;23.918;2023-11-18T07:38:12;92441.78;;;3.02;86.08
40592;BME280;26301;42.832;23.918;2023-11-18T07:40:38;92454.72;;;3.00;86.57
40592;BME280;26301;42.832;23.918;2023-11-18T07:43:08;92456.00;;;2.84;86.80
40592;BME280;26301;42.832;23.918;2023-11-18T07:45:37;92447.88;;;2.62;85.81
40592;BME280;26301;42.832;23.918;2023-11-18T07:48:12;92448.50;;;2.51;88.75
40592;BME280;26301;42.832;23.918;2023-11-18T07:50:39;92462.41;;;2.62;87.89
40592;BME280;26301;42.832;23.918;2023-11-18T07:53:08;92463.59;;;2.52;88.89
40592;BME280;26301;42.832;23.918;2023-11-18T07:55:33;92447.00;;;2.37;87.43
40592;BME280;26301;42.832;23.918;2023-11-18T07:58:09;92465.63;;;2.37;88.41
40592;BME280;26301;42.832;23.918;2023-11-18T08:00:38;92472.53;;;2.23;90.21
40592;BME280;26301;42.832;23.918;2023-11-18T08:03:05;92457.03;;;2.25;91.16
40592;BME280;26301;42.832;23.918;2023-11-18T08:05:37;92461.72;;;2.28;90.29
40592;BME280;26301;42.832;23.918;2023-11-18T08:08:05;92452.19;;;2.17;90.01
40592;BME280;26301;42.832;23.918;2023-11-18T08:10:31;92452.56;;;2.14;88.91
40592;BME280;26301;42.832;23.918;2023-11-18T08:12:58;92445.13;;;2.12;91.02
40592;BME280;26301;42.832;23.918;2023-11-18T08:15:24;92465.25;;;2.34;89.49
40592;BME280;26301;42.832;23.918;2023-11-18T08:17:52;92475.66;;;2.25;90.23
40592;BME280;26301;42.832;23.918;2023-11-18T08:20:18;92491.75;;;2.26;91.29
40592;BME280;26301;42.832;23.918;2023-11-18T08:22:46;92478.94;;;2.39;91.94
40592;BME280;26301;42.832;23.918;2023-11-18T08:25:12;92470.53;;;2.39;91.51
40592;BME280;26301;42.832;23.918;2023-11-18T08:27:40;92458.22;;;2.29;90.99
40592;BME280;26301;42.832;23.918;2023-11-18T08:30:07;92456.47;;;2.16;91.46
40592;BME280;26301;42.832;23.918;2023-11-18T08:32:37;92463.53;;;2.21;91.41
40592;BME280;26301;42.832;23.918;2023-11-18T08:35:05;92466.47;;;2.18;89.75
40592;BME280;26301;42.832;23.918;2023-11-18T08:37:33;92471.34;;;2.26;90.54
40592;BME280;26301;42.832;23.918;2023-11-18T08:40:04;92477.38;;;2.32;91.62
40592;BME280;26301;42.832;23.918;2023-11-18T08:42:32;92470.50;;;2.45;92.62
40592;BME280;26301;42.832;23.918;2023-11-18T08:44:59;92473.06;;;2.39;90.36
40592;BME280;26301;42.832;23.918;2023-11-18T08:47:26;92492.63;;;2.51;89.79
40592;BME280;26301;42.832;23.918;2023-11-18T08:49:52;92475.41;;;2.47;87.28
40592;BME280;26301;42.832;23.918;2023-11-18T08:52:17;92478.97;;;2.33;89.68
40592;BME280;26301;42.832;23.918;2023-11-18T08:54:43;92479.75;;;2.33;90.23
40592;BME280;26301;42.832;23.918;2023-11-18T08:57:27;92478.59;;;2.29;90.47
40592;BME280;26301;42.832;23.918;2023-11-18T08:59:59;92482.88;;;2.28;89.42
40592;BME280;26301;42.832;23.918;2023-11-18T09:02:25;92475.41;;;2.40;88.33
40592;BME280;26301;42.832;23.918;2023-11-18T09:04:50;92466.47;;;2.18;88.44
40592;BME280;26301;42.832;23.918;2023-11-18T09:07:17;92475.09;;;2.17;89.50
40592;BME280;26301;42.832;23.918;2023-11-18T09:09:44;92466.44;;;2.24;89.12
40592;BME280;26301;42.832;23.918;2023-11-18T09:12:11;92470.75;;;2.24;88.38
40592;BME280;26301;42.832;23.918;2023-11-18T09:14:37;92449.03;;;2.15;85.58
40592;BME280;26301;42.832;23.918;2023-11-18T09:17:03;92449.03;;;2.15;87.24
40592;BME280;26301;42.832;23.918;2023-11-18T09:19:32;92465.25;;;2.34;89.21
40592;BME280;26301;42.832;23.918;2023-11-18T09:21:57;92454.84;;;2.35;84.49
40592;BME280;26301;42.832;23.918;2023-11-18T09:24:23;92468.25;;;2.17;83.97
40592;BME280;26301;42.832;23.918;2023-11-18T09:26:50;92471.94;;;2.21;86.34
40592;BME280;26301;42.832;23.918;2023-11-18T09:29:16;92476.06;;;2.29;85.12
40592;BME280;26301;42.832;23.918;2023-11-18T09:31:46;92469.97;;;2.30;85.56
40592;BME280;26301;42.832;23.918;2023-11-18T09:34:15;92471.16;;;2.21;84.02
40592;BME280;26301;42.832;23.918;2023-11-18T09:36:43;92472.94;;;2.20;84.69
40592;BME280;26301;42.832;23.918;2023-11-18T09:39:09;92456.69;;;2.08;84.70
40592;BME280;26301;42.832;23.918;2023-11-18T09:41:42;92466.06;;;2.21;83.36
40592;BME280;26301;42.832;23.918;2023-11-18T09:44:08;92473.50;;;2.22;85.16
40592;BME280;26301;42.832;23.918;2023-11-18T09:46:41;92467.81;;;2.27;86.07
40592;BME280;26301;42.832;23.918;2023-11-18T09:49:26;92480.13;;;2.37;84.48
40592;BME280;26301;42.832;23.918;2023-11-18T09:51:59;92450.00;;;2.20;83.89
40592;BME280;26301;42.832;23.918;2023-11-18T09:57:05;92474.28;;;2.29;83.21
40592;BME280;26301;42.832;23.918;2023-11-18T10:02:10;92482.09;;;2.28;83.08
40592;BME280;26301;42.832;23.918;2023-11-18T10:04:37;92484.44;;;2.36;84.04
40592;BME280;26301;42.832;23.918;2023-11-18T10:07:05;92483.06;;;2.40;82.13
40592;BME280;26301;42.832;23.918;2023-11-18T10:09:32;92475.81;;;2.37;82.53
40592;BME280;26301;42.832;23.918;2023-11-18T10:12:07;92490.31;;;2.37;80.44
40592;BME280;26301;42.832;23.918;2023-11-18T10:14:36;92490.66;;;2.54;80.88
40592;BME280;26301;42.832;23.918;2023-11-18T10:17:08;92469.91;;;2.43;80.92
40592;BME280;26301;42.832;23.918;2023-11-18T10:19:54;92493.00;;;2.55;82.60
40592;BME280;26301;42.832;23.918;2023-11-18T10:22:26;92470.72;;;2.37;82.50
40592;BME280;26301;42.832;23.918;2023-11-18T10:24:57;92479.56;;;2.28;82.55
40592;BME280;26301;42.832;23.918;2023-11-18T10:27:29;92470.38;;;2.20;81.51
40592;BME280;26301;42.832;23.918;2023-11-18T10:30:02;92478.97;;;2.33;82.87
40592;BME280;26301;42.832;23.918;2023-11-18T10:32:28;92484.66;;;2.28;82.65
40592;BME280;26301;42.832;23.918;2023-11-18T10:34:55;92462.16;;;2.18;81.58
40592;BME280;26301;42.832;23.918;2023-11-18T10:37:21;92480.75;;;2.25;79.71
40592;BME280;26301;42.832;23.918;2023-11-18T10:39:48;92490.75;;;2.27;82.91
40592;BME280;26301;42.832;23.918;2023-11-18T10:42:20;92478.81;;;2.21;79.39
40592;BME280;26301;42.832;23.918;2023-11-18T10:44:56;92488.56;;;2.31;78.92
40592;BME280;26301;42.832;23.918;2023-11-18T10:47:27;92492.31;;;2.21;78.12
40592;BME280;26301;42.832;23.918;2023-11-18T10:49:54;92483.50;;;2.24;79.81
40592;BME280;26301;42.832;23.918;2023-11-18T10:52:26;92462.56;;;2.09;77.95
40592;BME280;26301;42.832;23.918;2023-11-18T10:54:56;92488.94;;;2.34;79.93
40592;BME280;26301;42.832;23.918;2023-11-18T10:57:22;92466.47;;;2.18;79.55
40592;BME280;26301;42.832;23.918;2023-11-18T11:00:02;92479.94;;;2.32;79.27
40592;BME280;26301;42.832;23.918;2023-11-18T11:02:32;92480.53;;;2.34;76.52
40592;BME280;26301;42.832;23.918;2023-11-18T11:05:03;92457.84;;;2.19;78.12
40592;BME280;26301;42.832;23.918;2023-11-18T11:07:31;92482.50;;;2.38;79.67
40592;BME280;26301;42.832;23.918;2023-11-18T11:09:59;92476.63;;;2.38;78.41
40592;BME280;26301;42.832;23.918;2023-11-18T11:12:33;92456.06;;;2.26;77.83
40592;BME280;26301;42.832;23.918;2023-11-18T11:15:12;92462.50;;;2.28;77.94
40592;BME280;26301;42.832;23.918;2023-11-18T11:17:48;92474.22;;;2.43;77.42
40592;BME280;26301;42.832;23.918;2023-11-18T11:20:21;92454.84;;;2.28;77.83
40592;BME280;26301;42.832;23.918;2023-11-18T11:26:18;92478.88;;;2.52;77.46
40592;BME280;26301;42.832;23.918;2023-11-18T11:29:01;92466.69;;;2.61;78.99
40592;BME280;26301;42.832;23.918;2023-11-18T11:31:38;92469.88;;;2.57;76.58
40592;BME280;26301;42.832;23.918;2023-11-18T11:34:24;92477.31;;;2.58;76.41
40592;BME280;26301;42.832;23.918;2023-11-18T11:36:53;92468.91;;;2.51;76.75
40592;BME280;26301;42.832;23.918;2023-11-18T11:39:20;92455.78;;;2.47;77.77
40592;BME280;26301;42.832;23.918;2023-11-18T11:41:54;92470.44;;;2.65;79.84
40592;BME280;26301;42.832;23.918;2023-11-18T11:44:22;92466.69;;;2.61;79.77
40592;BME280;26301;42.832;23.918;2023-11-18T11:46:54;92474.72;;;2.71;77.85
40592;BME280;26301;42.832;23.918;2023-11-18T11:49:22;92472.13;;;2.78;82.47
40592;BME280;26301;42.832;23.918;2023-11-18T11:52:38;92482.78;;;2.68;74.11
40592;BME280;26301;42.832;23.918;2023-11-18T11:57:32;92478.06;;;2.59;74.08
40592;BME280;26301;42.832;23.918;2023-11-18T12:00:03;92477.31;;;2.58;75.24
40592;BME280;26301;42.832;23.918;2023-11-18T12:02:47;92482.81;;;2.62;74.62
40592;BME280;26301;42.832;23.918;2023-11-18T12:05:16;92481.47;;;2.46;76.15
40592;BME280;26301;42.832;23.918;2023-11-18T12:07:45;92478.47;;;2.56;77.06
40592;BME280;26301;42.832;23.918;2023-11-18T12:10:12;92467.13;;;2.51;75.79
40592;BME280;26301;42.832;23.918;2023-11-18T12:12:39;92467.75;;;2.40;75.64
40592;BME280;26301;42.832;23.918;2023-11-18T12:15:05;92470.31;;;2.40;74.63
40592;BME280;26301;42.832;23.918;2023-11-18T12:20:43;92483.75;;;2.61;72.83
40592;BME280;26301;42.832;23.918;2023-11-18T12:23:23;92452.47;;;2.47;73.03
40592;BME280;26301;42.832;23.918;2023-11-18T12:25:56;92484.00;;;2.52;76.68
40592;BME280;26301;42.832;23.918;2023-11-18T12:28:27;92481.84;;;2.56;74.87
40592;BME280;26301;42.832;23.918;2023-11-18T12:30:57;92483.25;;;2.45;76.28
40592;BME280;26301;42.832;23.918;2023-11-18T12:33:23;92486.75;;;2.51;76.47
40592;BME280;26301;42.832;23.918;2023-11-18T12:39:01;92489.88;;;2.60;75.18
40592;BME280;26301;42.832;23.918;2023-11-18T12:41:39;92486.53;;;2.59;75.87
40592;BME280;26301;42.832;23.918;2023-11-18T12:49:41;92466.97;;;2.40;74.67
40592;BME280;26301;42.832;23.918;2023-11-18T12:52:08;92474.81;;;2.45;75.28
40592;BME280;26301;42.832;23.918;2023-11-18T12:54:34;92489.13;;;2.46;75.08
40592;BME280;26301;42.832;23.918;2023-11-18T12:57:06;92461.50;;;2.36;76.76
40592;BME280;26301;42.832;23.918;2023-11-18T12:59:33;92493.63;;;2.50;75.72
40592;BME280;26301;42.832;23.918;2023-11-18T13:01:59;92473.66;;;2.34;73.81
40592;BME280;26301;42.832;23.918;2023-11-18T13:04:30;92490.09;;;2.45;76.82
40592;BME280;26301;42.832;23.918;2023-11-18T13:06:56;92493.03;;;2.48;76.37
40592;BME280;26301;42.832;23.918;2023-11-18T13:09:23;92487.38;;;2.40;75.57
40592;BME280;26301;42.832;23.918;2023-11-18T13:11:57;92494.84;;;2.41;77.87
40592;BME280;26301;42.832;23.918;2023-11-18T13:14:27;92503.25;;;2.42;77.57
40592;BME280;26301;42.832;23.918;2023-11-18T13:16:56;92464.66;;;2.25;77.50
40592;BME280;26301;42.832;23.918;2023-11-18T13:19:26;92508.75;;;2.39;78.75
40592;BME280;26301;42.832;23.918;2023-11-18T13:21:56;92478.59;;;2.29;77.06
40592;BME280;26301;42.832;23.918;2023-11-18T13:24:22;92499.16;;;2.34;76.78
40592;BME280;26301;42.832;23.918;2023-11-18T13:26:48;92502.88;;;2.32;79.16
40592;BME280;26301;42.832;23.918;2023-11-18T13:29:14;92505.41;;;2.32;79.07